createdAt,value
2023-05-06T00:00:00.259Z,6.1
2023-05-06T00:01:08.579Z,6.1
2023-05-06T00:02:16.931Z,6.1
2023-05-06T00:03:25.525Z,7
2023-05-06T00:04:33.830Z,7
2023-05-06T00:05:42.135Z,7
2023-05-06T00:06:51.583Z,6.9
2023-05-06T00:07:59.901Z,6.9
2023-05-06T00:09:08.225Z,6.9
2023-05-06T00:10:16.769Z,6.8
2023-05-06T00:11:25.108Z,6.8
2023-05-06T00:12:33.452Z,6.8
2023-05-06T00:13:42.062Z,7
2023-05-06T00:14:50.314Z,7
2023-05-06T00:15:58.729Z,7
2023-05-06T00:17:07.183Z,6.9
2023-05-06T00:18:15.573Z,6.9
2023-05-06T00:19:23.891Z,6.9
2023-05-06T00:20:32.429Z,7.3
2023-05-06T00:21:40.785Z,7.3
2023-05-06T00:22:49.145Z,7.3
2023-05-06T00:23:57.709Z,7
2023-05-06T00:25:06.168Z,7
2023-05-06T00:26:14.394Z,7
2023-05-06T00:27:22.933Z,6.9
2023-05-06T00:28:31.272Z,6.9
2023-05-06T00:29:39.702Z,6.9
2023-05-06T00:30:48.142Z,8.7
2023-05-06T00:31:56.491Z,8.7
2023-05-06T00:33:04.839Z,8.7
2023-05-06T00:34:13.362Z,8.9
2023-05-06T00:35:21.676Z,8.9
2023-05-06T00:36:30.079Z,8.9
2023-05-06T00:37:38.635Z,10.4
2023-05-06T00:38:46.971Z,10.4
2023-05-06T00:39:55.338Z,10.4
2023-05-06T00:41:03.855Z,10.2
2023-05-06T00:42:12.222Z,10.2
2023-05-06T00:43:20.549Z,10.2
2023-05-06T00:44:29.097Z,9.6
2023-05-06T00:45:37.546Z,9.6
2023-05-06T00:46:45.766Z,9.6
2023-05-06T00:47:54.321Z,9.5
2023-05-06T00:49:02.670Z,9.5
2023-05-06T00:50:11.029Z,9.5
2023-05-06T00:51:19.565Z,9.1
2023-05-06T00:52:27.934Z,9.1
2023-05-06T00:53:36.256Z,9.1
2023-05-06T00:54:44.814Z,10.3
2023-05-06T00:55:53.145Z,10.3
2023-05-06T00:57:01.500Z,10.3
2023-05-06T00:58:10.049Z,8.1
2023-05-06T00:59:18.383Z,8.1
2023-05-06T01:00:26.718Z,8.1
2023-05-06T01:01:35.504Z,9
2023-05-06T01:02:46.786Z,9
2023-05-06T01:03:52.024Z,9
2023-05-06T01:05:00.525Z,9
2023-05-06T01:06:08.836Z,9
2023-05-06T01:07:17.193Z,9
2023-05-06T01:08:25.750Z,8.8
2023-05-06T01:09:34.106Z,8.8
2023-05-06T01:10:42.415Z,8.8
2023-05-06T01:11:50.981Z,8.7
2023-05-06T01:12:59.335Z,8.7
2023-05-06T01:14:07.648Z,8.7
2023-05-06T01:15:16.167Z,8.6
2023-05-06T01:16:24.582Z,8.6
2023-05-06T01:17:32.972Z,8.6
2023-05-06T01:18:41.383Z,8.5
2023-05-06T01:19:49.709Z,8.5
2023-05-06T01:20:58.061Z,8.5
2023-05-06T01:22:06.592Z,8.9
2023-05-06T01:23:14.919Z,8.9
2023-05-06T01:24:23.250Z,8.9
2023-05-06T01:25:31.819Z,10.3
2023-05-06T01:26:40.721Z,10.3
2023-05-06T01:27:49.059Z,10.3
2023-05-06T01:28:57.605Z,10.7
2023-05-06T01:30:05.933Z,10.7
2023-05-06T01:31:14.301Z,10.7
2023-05-06T01:32:22.841Z,10
2023-05-06T01:33:31.382Z,10
2023-05-06T01:34:39.480Z,10
2023-05-06T01:35:48.019Z,9.7
2023-05-06T01:36:56.388Z,9.7
2023-05-06T01:38:04.689Z,9.7
2023-05-06T01:39:13.252Z,9.4
2023-05-06T01:40:21.605Z,9.4
2023-05-06T01:41:29.938Z,9.4
2023-05-06T01:42:38.479Z,9.5
2023-05-06T01:43:46.813Z,9.5
2023-05-06T01:44:55.155Z,9.5
2023-05-06T01:46:03.774Z,9.3
2023-05-06T01:47:12.044Z,9.3
2023-05-06T01:48:20.398Z,9.3
2023-05-06T01:49:29.002Z,10.1
2023-05-06T01:50:37.315Z,10.1
2023-05-06T01:51:45.666Z,10.1
2023-05-06T01:52:54.237Z,9.4
2023-05-06T01:54:02.552Z,9.4
2023-05-06T01:55:11.052Z,9.4
2023-05-06T01:56:19.432Z,9.9
2023-05-06T01:57:27.795Z,9.9
2023-05-06T01:58:36.124Z,9.9
2023-05-06T01:59:44.676Z,9.2
2023-05-06T02:00:53.018Z,9.2
2023-05-06T02:02:01.394Z,9.2
2023-05-06T02:03:09.928Z,9.8
2023-05-06T02:04:18.223Z,9.8
2023-05-06T02:05:26.702Z,9.8
2023-05-06T02:06:35.194Z,10.2
2023-05-06T02:07:43.490Z,10.2
2023-05-06T02:08:51.851Z,10.2
2023-05-06T02:10:00.376Z,9.5
2023-05-06T02:11:08.738Z,9.5
2023-05-06T02:12:17.089Z,9.5
2023-05-06T02:13:25.639Z,10.3
2023-05-06T02:14:33.972Z,10.3
2023-05-06T02:15:42.339Z,10.3
2023-05-06T02:16:51.575Z,10.3
2023-05-06T02:18:00.023Z,10.3
2023-05-06T02:19:08.263Z,10.3
2023-05-06T02:20:16.795Z,10.5
2023-05-06T02:21:25.226Z,10.5
2023-05-06T02:22:33.456Z,10.5
2023-05-06T02:23:42.010Z,10.4
2023-05-06T02:24:50.348Z,10.4
2023-05-06T02:25:58.674Z,10.4
2023-05-06T02:27:07.212Z,9.8
2023-05-06T02:28:15.593Z,9.8
2023-05-06T02:29:23.925Z,9.8
2023-05-06T02:30:32.467Z,10.2
2023-05-06T02:31:40.819Z,10.2
2023-05-06T02:32:49.140Z,10.2
2023-05-06T02:33:57.688Z,10.4
2023-05-06T02:35:06.052Z,10.4
2023-05-06T02:36:14.382Z,10.4
2023-05-06T02:37:23.016Z,10
2023-05-06T02:38:31.260Z,10
2023-05-06T02:39:39.587Z,10
2023-05-06T02:40:48.147Z,10.2
2023-05-06T02:41:56.459Z,10.2
2023-05-06T02:43:04.823Z,10.2
2023-05-06T02:44:13.357Z,10.3
2023-05-06T02:45:21.664Z,10.3
2023-05-06T02:46:30.002Z,10.3
2023-05-06T02:47:38.566Z,10.3
2023-05-06T02:48:46.887Z,10.3
2023-05-06T02:49:55.216Z,10.3
2023-05-06T02:51:03.784Z,10.2
2023-05-06T02:52:12.098Z,10.2
2023-05-06T02:53:20.582Z,10.2
2023-05-06T02:54:28.961Z,10.2
2023-05-06T02:55:37.305Z,10.2
2023-05-06T02:56:45.644Z,10.2
2023-05-06T02:57:54.167Z,9.5
2023-05-06T02:59:02.499Z,9.5
2023-05-06T03:00:10.852Z,9.5
2023-05-06T03:01:19.397Z,10.1
2023-05-06T03:02:27.777Z,10.1
2023-05-06T03:03:36.069Z,10.1
2023-05-06T03:04:44.598Z,10
2023-05-06T03:05:52.954Z,10
2023-05-06T03:07:01.289Z,10
2023-05-06T03:08:09.799Z,9.8
2023-05-06T03:09:18.296Z,9.8
2023-05-06T03:10:26.494Z,9.8
2023-05-06T03:11:35.019Z,9.6
2023-05-06T03:12:43.392Z,9.6
2023-05-06T03:13:51.700Z,9.6
2023-05-06T03:15:00.264Z,9.3
2023-05-06T03:16:08.599Z,9.3
2023-05-06T03:17:16.909Z,9.3
2023-05-06T03:18:25.423Z,9.2
2023-05-06T03:19:33.754Z,9.2
2023-05-06T03:20:42.124Z,9.2
2023-05-06T03:21:50.650Z,9.9
2023-05-06T03:22:58.995Z,9.9
2023-05-06T03:24:07.308Z,9.9
2023-05-06T03:25:15.953Z,9.5
2023-05-06T03:26:24.159Z,9.5
2023-05-06T03:27:32.509Z,9.5
2023-05-06T03:28:41.056Z,9.5
2023-05-06T03:29:49.393Z,9.5
2023-05-06T03:30:57.769Z,9.5
2023-05-06T03:32:06.293Z,9.8
2023-05-06T03:33:14.628Z,9.8
2023-05-06T03:34:22.965Z,9.8
2023-05-06T03:35:31.498Z,9.9
2023-05-06T03:36:39.824Z,9.9
2023-05-06T03:37:48.182Z,9.9
2023-05-06T03:38:56.694Z,9.6
2023-05-06T03:40:05.043Z,9.6
2023-05-06T03:41:13.521Z,9.6
2023-05-06T03:42:21.930Z,9.8
2023-05-06T03:43:30.247Z,9.8
2023-05-06T03:44:38.610Z,9.8
2023-05-06T03:45:47.195Z,9.6
2023-05-06T03:46:55.501Z,9.6
2023-05-06T03:48:03.881Z,9.6
2023-05-06T03:49:12.387Z,9.8
2023-05-06T03:50:20.732Z,9.8
2023-05-06T03:51:29.060Z,9.8
2023-05-06T03:52:37.589Z,9.7
2023-05-06T03:53:45.930Z,9.7
2023-05-06T03:54:54.250Z,9.7
2023-05-06T03:56:02.797Z,10.1
2023-05-06T03:57:11.333Z,10.1
2023-05-06T03:58:19.456Z,10.1
2023-05-06T03:59:28.013Z,10
2023-05-06T04:00:36.361Z,10
2023-05-06T04:01:44.756Z,10
2023-05-06T04:02:53.284Z,9.9
2023-05-06T04:04:01.619Z,9.9
2023-05-06T04:05:10.010Z,9.9
2023-05-06T04:06:18.439Z,9.7
2023-05-06T04:07:26.788Z,9.7
2023-05-06T04:08:35.127Z,9.7
2023-05-06T04:09:43.683Z,10.1
2023-05-06T04:10:52.035Z,10.1
2023-05-06T04:12:00.361Z,10.1
2023-05-06T04:13:09.116Z,9.9
2023-05-06T04:14:17.239Z,9.9
2023-05-06T04:15:25.584Z,9.9
2023-05-06T04:16:34.163Z,10.6
2023-05-06T04:17:42.529Z,10.6
2023-05-06T04:18:50.818Z,10.6
2023-05-06T04:19:59.382Z,10.8
2023-05-06T04:21:07.724Z,10.8
2023-05-06T04:22:16.061Z,10.8
2023-05-06T04:23:24.629Z,11
2023-05-06T04:24:32.939Z,11
2023-05-06T04:25:41.278Z,11
2023-05-06T04:26:49.818Z,11.3
2023-05-06T04:27:58.161Z,11.3
2023-05-06T04:29:06.580Z,11.3
2023-05-06T04:30:15.049Z,11.3
2023-05-06T04:31:23.371Z,11.3
2023-05-06T04:32:31.700Z,11.3
2023-05-06T04:33:40.254Z,10.9
2023-05-06T04:34:48.575Z,10.9
2023-05-06T04:35:56.906Z,10.9
2023-05-06T04:37:05.438Z,10.8
2023-05-06T04:38:13.766Z,10.8
2023-05-06T04:39:22.091Z,10.8
2023-05-06T04:40:30.630Z,11.3
2023-05-06T04:41:38.959Z,11.3
2023-05-06T04:42:47.318Z,11.3
2023-05-06T04:43:55.859Z,11.2
2023-05-06T04:45:04.244Z,11.2
2023-05-06T04:46:12.585Z,11.2
2023-05-06T04:47:21.081Z,10.6
2023-05-06T04:48:29.415Z,10.6
2023-05-06T04:49:37.765Z,10.6
2023-05-06T04:50:46.284Z,11.8
2023-05-06T04:51:54.626Z,11.8
2023-05-06T04:53:02.974Z,11.8
2023-05-06T04:54:11.509Z,11.1
2023-05-06T04:55:19.861Z,11.1
2023-05-06T04:56:28.173Z,11.1
2023-05-06T04:57:36.729Z,10.5
2023-05-06T04:58:45.055Z,10.5
2023-05-06T04:59:53.386Z,10.5
2023-05-06T05:01:01.980Z,10.1
2023-05-06T05:02:10.285Z,10.1
2023-05-06T05:03:18.729Z,10.1
2023-05-06T05:04:27.183Z,10.6
2023-05-06T05:05:35.540Z,10.6
2023-05-06T05:06:43.844Z,10.6
2023-05-06T05:07:52.383Z,10.1
2023-05-06T05:09:00.751Z,10.1
2023-05-06T05:10:09.068Z,10.1
2023-05-06T05:11:17.593Z,9.8
2023-05-06T05:12:25.942Z,9.8
2023-05-06T05:13:34.267Z,9.8
2023-05-06T05:14:42.820Z,9.9
2023-05-06T05:15:51.142Z,9.9
2023-05-06T05:16:59.639Z,9.9
2023-05-06T05:18:08.068Z,10.1
2023-05-06T05:19:16.364Z,10.1
2023-05-06T05:20:24.722Z,10.1
2023-05-06T05:21:33.272Z,9.9
2023-05-06T05:22:41.628Z,9.9
2023-05-06T05:23:49.929Z,9.9
2023-05-06T05:24:58.482Z,10.1
2023-05-06T05:26:06.805Z,10.1
2023-05-06T05:27:15.145Z,10.1
2023-05-06T05:28:23.699Z,10
2023-05-06T05:29:32.024Z,10
2023-05-06T05:30:40.353Z,10
2023-05-06T05:31:48.957Z,9.8
2023-05-06T05:32:57.398Z,9.8
2023-05-06T05:34:05.581Z,9.8
2023-05-06T05:35:14.120Z,9.2
2023-05-06T05:36:22.471Z,9.2
2023-05-06T05:37:30.800Z,9.2
2023-05-06T05:38:39.344Z,8.6
2023-05-06T05:39:47.688Z,8.6
2023-05-06T05:40:56.028Z,8.6
2023-05-06T05:42:04.560Z,8.3
2023-05-06T05:43:12.892Z,8.3
2023-05-06T05:44:21.217Z,8.3
2023-05-06T05:45:29.757Z,8.2
2023-05-06T05:46:38.073Z,8.2
2023-05-06T05:47:46.389Z,8.2
2023-05-06T05:48:55.082Z,7.6
2023-05-06T05:50:03.287Z,7.6
2023-05-06T05:51:11.614Z,7.6
2023-05-06T05:52:20.157Z,7.4
2023-05-06T05:53:28.479Z,7.4
2023-05-06T05:54:36.840Z,7.4
2023-05-06T05:55:45.378Z,7
2023-05-06T05:56:53.728Z,7
2023-05-06T05:58:02.089Z,7
2023-05-06T05:59:10.651Z,7.1
2023-05-06T06:00:18.977Z,7.1
2023-05-06T06:01:27.342Z,7.1
2023-05-06T06:02:35.955Z,6.2
2023-05-06T06:03:44.320Z,6.2
2023-05-06T06:04:52.842Z,6.2
2023-05-06T06:06:01.092Z,6
2023-05-06T06:07:09.439Z,6
2023-05-06T06:08:17.771Z,6
2023-05-06T06:09:26.339Z,6.2
2023-05-06T06:10:34.680Z,6.2
2023-05-06T06:11:43.005Z,6.2
2023-05-06T06:12:51.561Z,6.6
2023-05-06T06:13:59.893Z,6.6
2023-05-06T06:15:08.415Z,6.6
2023-05-06T06:16:16.799Z,5.8
2023-05-06T06:17:25.141Z,5.8
2023-05-06T06:18:33.500Z,5.8
2023-05-06T06:19:42.033Z,6.4
2023-05-06T06:20:52.452Z,6.4
2023-05-06T06:21:58.726Z,6.4
2023-05-06T06:23:07.260Z,5.4
2023-05-06T06:24:15.583Z,5.4
2023-05-06T06:25:23.946Z,5.4
2023-05-06T06:26:32.464Z,4.7
2023-05-06T06:27:40.831Z,4.7
2023-05-06T06:28:49.158Z,4.7
2023-05-06T06:29:57.726Z,4.9
2023-05-06T06:31:06.033Z,4.9
2023-05-06T06:32:14.396Z,4.9
2023-05-06T06:33:22.915Z,4.5
2023-05-06T06:34:31.267Z,4.5
2023-05-06T06:35:39.600Z,4.5
2023-05-06T06:36:48.284Z,3.8
2023-05-06T06:37:56.476Z,3.8
2023-05-06T06:39:04.800Z,3.8
2023-05-06T06:40:13.342Z,3.5
2023-05-06T06:41:21.681Z,3.5
2023-05-06T06:42:30.026Z,3.5
2023-05-06T06:43:38.582Z,3.1
2023-05-06T06:44:46.911Z,3.1
2023-05-06T06:45:55.228Z,3.1
2023-05-06T06:47:03.796Z,3.4
2023-05-06T06:48:12.190Z,3.4
2023-05-06T06:49:20.468Z,3.4
2023-05-06T06:50:29.006Z,5.5
2023-05-06T06:51:37.352Z,5.5
2023-05-06T06:52:45.792Z,5.5
2023-05-06T06:53:54.235Z,4.3
2023-05-06T06:55:02.624Z,4.3
2023-05-06T06:56:10.922Z,4.3
2023-05-06T06:57:19.481Z,3
2023-05-06T06:58:27.842Z,3
2023-05-06T06:59:36.154Z,3
2023-05-06T07:00:44.734Z,3.6
2023-05-06T07:01:54.032Z,3.6
2023-05-06T07:03:02.431Z,3.6
2023-05-06T07:04:10.985Z,3.3
2023-05-06T07:05:19.312Z,3.3
2023-05-06T07:06:27.665Z,3.3
2023-05-06T07:07:36.227Z,3.5
2023-05-06T07:08:44.569Z,3.5
2023-05-06T07:09:52.914Z,3.5
2023-05-06T07:11:01.447Z,3.4
2023-05-06T07:12:09.803Z,3.4
2023-05-06T07:13:18.231Z,3.4
2023-05-06T07:14:26.692Z,3.3
2023-05-06T07:15:35.043Z,3.3
2023-05-06T07:16:45.325Z,3.3
2023-05-06T07:17:51.965Z,4.4
2023-05-06T07:19:00.280Z,4.4
2023-05-06T07:20:08.608Z,4.4
2023-05-06T07:21:17.163Z,4.4
2023-05-06T07:22:25.525Z,4.4
2023-05-06T07:23:33.843Z,4.4
2023-05-06T07:24:42.502Z,4.4
2023-05-06T07:25:50.740Z,4.4
2023-05-06T07:26:59.170Z,4.4
2023-05-06T07:28:07.721Z,4.1
2023-05-06T07:29:16.062Z,4.1
2023-05-06T07:30:24.387Z,4.1
2023-05-06T07:31:32.976Z,3.9
2023-05-06T07:32:41.383Z,3.9
2023-05-06T07:33:49.560Z,3.9
2023-05-06T07:34:58.063Z,4
2023-05-06T07:36:06.404Z,4
2023-05-06T07:37:14.744Z,4
2023-05-06T07:38:23.269Z,4.4
2023-05-06T07:39:31.580Z,4.4
2023-05-06T07:40:39.921Z,4.4
2023-05-06T07:41:48.444Z,4.4
2023-05-06T07:42:56.798Z,4.4
2023-05-06T07:44:05.109Z,4.4
2023-05-06T07:45:13.634Z,4.1
2023-05-06T07:46:22.021Z,4.1
2023-05-06T07:47:30.334Z,4.1
2023-05-06T07:48:38.875Z,3.8
2023-05-06T07:49:47.213Z,3.8
2023-05-06T07:50:55.535Z,3.8
2023-05-06T07:52:04.118Z,3.5
2023-05-06T07:53:12.434Z,3.5
2023-05-06T07:54:20.752Z,3.5
2023-05-06T07:55:29.289Z,3.2
2023-05-06T07:56:37.694Z,3.2
2023-05-06T07:57:46.004Z,3.2
2023-05-06T07:58:54.587Z,3.2
2023-05-06T08:00:02.963Z,3.2
2023-05-06T08:01:11.293Z,3.2
2023-05-06T08:02:19.852Z,3.4
2023-05-06T08:03:28.303Z,3.4
2023-05-06T08:04:36.594Z,3.4
2023-05-06T08:05:45.089Z,2.8
2023-05-06T08:06:53.428Z,2.8
2023-05-06T08:08:01.764Z,2.8
2023-05-06T08:09:12.890Z,3.1
2023-05-06T08:10:18.649Z,3.1
2023-05-06T08:11:27.014Z,3.1
2023-05-06T08:12:35.651Z,3.2
2023-05-06T08:13:43.854Z,3.2
2023-05-06T08:14:52.229Z,3.2
2023-05-06T08:16:00.775Z,2.9
2023-05-06T08:17:09.118Z,2.9
2023-05-06T08:18:22.120Z,2.9
2023-05-06T08:19:25.998Z,2.9
2023-05-06T08:20:34.336Z,2.9
2023-05-06T08:21:42.660Z,2.9
2023-05-06T08:22:51.229Z,2.4
2023-05-06T08:23:59.557Z,2.4
2023-05-06T08:25:08.051Z,2.4
2023-05-06T08:26:16.425Z,2.7
2023-05-06T08:27:24.770Z,2.7
2023-05-06T08:28:33.137Z,2.7
2023-05-06T08:29:41.681Z,2.2
2023-05-06T08:30:50.023Z,2.2
2023-05-06T08:31:58.400Z,2.2
2023-05-06T08:33:06.922Z,2.2
2023-05-06T08:34:15.290Z,2.2
2023-05-06T08:35:23.630Z,2.2
2023-05-06T08:36:32.212Z,1.9
2023-05-06T08:37:40.574Z,1.9
2023-05-06T08:38:48.949Z,1.9
2023-05-06T08:39:59.308Z,1.8
2023-05-06T08:41:05.850Z,1.8
2023-05-06T08:42:14.189Z,1.8
2023-05-06T08:43:22.720Z,2.2
2023-05-06T08:44:31.127Z,2.2
2023-05-06T08:45:39.376Z,2.2
2023-05-06T08:46:47.999Z,1.9
2023-05-06T08:47:56.419Z,1.9
2023-05-06T08:49:04.718Z,1.9
2023-05-06T08:50:13.276Z,1.9
2023-05-06T08:51:22.183Z,1.9
2023-05-06T08:52:29.977Z,1.9
2023-05-06T08:53:38.534Z,2
2023-05-06T08:54:46.894Z,2
2023-05-06T08:55:55.240Z,2
2023-05-06T08:57:03.792Z,2
2023-05-06T08:58:12.112Z,2
2023-05-06T08:59:20.489Z,2
2023-05-06T09:00:29.115Z,1.9
2023-05-06T09:01:37.477Z,1.9
2023-05-06T09:02:45.798Z,1.9
2023-05-06T09:03:54.256Z,1.5
2023-05-06T09:05:02.605Z,1.5
2023-05-06T09:06:10.948Z,1.5
2023-05-06T09:07:19.479Z,1.6
2023-05-06T09:08:27.824Z,1.6
2023-05-06T09:09:36.128Z,1.6
2023-05-06T09:10:44.695Z,1.7
2023-05-06T09:11:52.991Z,1.7
2023-05-06T09:13:01.337Z,1.7
2023-05-06T09:14:09.876Z,1.3
2023-05-06T09:15:18.211Z,1.3
2023-05-06T09:16:26.673Z,1.3
2023-05-06T09:17:35.088Z,1.6
2023-05-06T09:18:43.416Z,1.6
2023-05-06T09:19:51.753Z,1.6
2023-05-06T09:21:00.931Z,1.6
2023-05-06T09:22:08.649Z,1.6
2023-05-06T09:23:17.071Z,1.6
2023-05-06T09:24:25.567Z,1.3
2023-05-06T09:25:33.906Z,1.3
2023-05-06T09:26:42.229Z,1.3
2023-05-06T09:27:50.761Z,1.6
2023-05-06T09:28:59.078Z,1.6
2023-05-06T09:30:07.443Z,1.6
2023-05-06T09:31:16.028Z,1.5
2023-05-06T09:32:24.445Z,1.5
2023-05-06T09:33:32.607Z,1.5
2023-05-06T09:34:41.140Z,1.7
2023-05-06T09:35:49.454Z,1.7
2023-05-06T09:36:57.775Z,1.7
2023-05-06T09:38:07.234Z,1.4
2023-05-06T09:39:14.669Z,1.4
2023-05-06T09:40:23.014Z,1.4
2023-05-06T09:41:31.535Z,1.2
2023-05-06T09:42:39.875Z,1.2
2023-05-06T09:43:48.230Z,1.2
2023-05-06T09:44:57.385Z,1.7
2023-05-06T09:46:05.153Z,1.7
2023-05-06T09:47:13.450Z,1.7
2023-05-06T09:48:22.091Z,1.4
2023-05-06T09:49:30.341Z,1.4
2023-05-06T09:50:38.658Z,1.4
2023-05-06T09:51:47.215Z,1.5
2023-05-06T09:52:55.557Z,1.5
2023-05-06T09:54:03.874Z,1.5
2023-05-06T09:55:12.562Z,1.1
2023-05-06T09:56:20.780Z,1.1
2023-05-06T09:57:29.105Z,1.1
2023-05-06T09:58:37.664Z,1.2
2023-05-06T09:59:46.033Z,1.2
2023-05-06T10:00:54.371Z,1.2
2023-05-06T10:02:03.032Z,1.4
2023-05-06T10:03:11.381Z,1.4
2023-05-06T10:04:19.794Z,1.4
2023-05-06T10:05:28.187Z,1.5
2023-05-06T10:06:36.484Z,1.5
2023-05-06T10:07:44.810Z,1.5
2023-05-06T10:08:53.436Z,1.2
2023-05-06T10:10:01.817Z,1.2
2023-05-06T10:11:10.138Z,1.2
2023-05-06T10:12:18.673Z,1.7
2023-05-06T10:13:27.195Z,1.7
2023-05-06T10:14:35.489Z,1.7
2023-05-06T10:15:44.148Z,1.1
2023-05-06T10:16:52.469Z,1.1
2023-05-06T10:18:00.848Z,1.1
2023-05-06T10:19:09.420Z,1.5
2023-05-06T10:20:17.863Z,1.5
2023-05-06T10:21:26.065Z,1.5
2023-05-06T10:22:34.612Z,1.1
2023-05-06T10:23:42.974Z,1.1
2023-05-06T10:24:51.348Z,1.1
2023-05-06T10:25:59.886Z,1
2023-05-06T10:27:08.258Z,1
2023-05-06T10:28:20.938Z,1
2023-05-06T10:29:25.151Z,1
2023-05-06T10:30:33.491Z,1
2023-05-06T10:31:41.862Z,1
2023-05-06T10:32:50.394Z,0.9
2023-05-06T10:33:58.713Z,0.9
2023-05-06T10:35:07.069Z,0.9
2023-05-06T10:36:15.820Z,1
2023-05-06T10:37:23.970Z,1
2023-05-06T10:38:32.289Z,1
2023-05-06T10:39:42.075Z,1.1
2023-05-06T10:40:49.235Z,1.1
2023-05-06T10:41:57.552Z,1.1
2023-05-06T10:43:06.091Z,1
2023-05-06T10:44:14.495Z,1
2023-05-06T10:45:22.873Z,1
2023-05-06T10:46:31.378Z,1.3
2023-05-06T10:47:39.759Z,1.3
2023-05-06T10:48:48.063Z,1.3
2023-05-06T10:49:56.622Z,1.3
2023-05-06T10:51:05.036Z,1.3
2023-05-06T10:52:13.575Z,1.3
2023-05-06T10:53:21.897Z,1.7
2023-05-06T10:54:30.236Z,1.7
2023-05-06T10:55:38.654Z,1.7
2023-05-06T10:56:47.201Z,1.1
2023-05-06T10:57:55.589Z,1.1
2023-05-06T10:59:03.950Z,1.1
2023-05-06T11:00:12.502Z,1.2
2023-05-06T11:01:20.885Z,1.2
2023-05-06T11:02:29.222Z,1.2
2023-05-06T11:03:37.751Z,3.2
2023-05-06T11:04:46.068Z,3.2
2023-05-06T11:05:54.434Z,3.2
2023-05-06T11:07:02.998Z,1.8
2023-05-06T11:08:11.480Z,1.8
2023-05-06T11:09:19.690Z,1.8
2023-05-06T11:10:28.246Z,1.3
2023-05-06T11:11:36.576Z,1.3
2023-05-06T11:12:45.004Z,1.3
2023-05-06T11:13:53.461Z,1.4
2023-05-06T11:15:01.792Z,1.4
2023-05-06T11:16:10.144Z,1.4
2023-05-06T11:17:18.675Z,2.1
2023-05-06T11:18:27.018Z,2.1
2023-05-06T11:19:35.343Z,2.1
2023-05-06T11:20:43.884Z,13.7
2023-05-06T11:21:52.215Z,13.7
2023-05-06T11:23:00.556Z,13.7
2023-05-06T11:24:09.104Z,4
2023-05-06T11:25:17.424Z,4
2023-05-06T11:26:25.743Z,4
2023-05-06T11:27:34.279Z,1.2
2023-05-06T11:28:42.615Z,1.2
2023-05-06T11:29:50.982Z,1.2
2023-05-06T11:30:59.560Z,4.3
2023-05-06T11:32:07.885Z,4.3
2023-05-06T11:33:16.206Z,4.3
2023-05-06T11:34:24.769Z,1.1
2023-05-06T11:35:33.093Z,1.1
2023-05-06T11:36:41.428Z,1.1
2023-05-06T11:37:50.044Z,1.4
2023-05-06T11:38:58.324Z,1.4
2023-05-06T11:40:06.781Z,1.4
2023-05-06T11:41:15.219Z,1.1
2023-05-06T11:42:23.564Z,1.1
2023-05-06T11:43:31.943Z,1.1
2023-05-06T11:44:40.492Z,1.9
2023-05-06T11:45:48.828Z,1.9
2023-05-06T11:46:57.165Z,1.9
2023-05-06T11:48:05.752Z,1.4
2023-05-06T11:49:14.020Z,1.4
2023-05-06T11:50:22.367Z,1.4
2023-05-06T11:51:31.013Z,1
2023-05-06T11:52:39.328Z,1
2023-05-06T11:53:47.686Z,1
2023-05-06T11:54:56.243Z,0.9
2023-05-06T11:56:04.662Z,0.9
2023-05-06T11:57:13.431Z,0.9
2023-05-06T11:58:21.968Z,1
2023-05-06T11:59:30.324Z,1
2023-05-06T12:00:38.687Z,1
2023-05-06T12:01:47.252Z,1
2023-05-06T12:02:55.647Z,1
2023-05-06T12:04:04.084Z,1
2023-05-06T12:05:12.493Z,1.2
2023-05-06T12:06:21.677Z,1.2
2023-05-06T12:07:29.217Z,1.2
2023-05-06T12:08:37.800Z,1.3
2023-05-06T12:09:46.156Z,1.3
2023-05-06T12:10:54.498Z,1.3
2023-05-06T12:12:03.132Z,1
2023-05-06T12:13:11.389Z,1
2023-05-06T12:14:19.697Z,1
2023-05-06T12:15:28.265Z,0.9
2023-05-06T12:16:36.676Z,0.9
2023-05-06T12:17:44.941Z,0.9
2023-05-06T12:18:53.547Z,1.1
2023-05-06T12:20:01.891Z,1.1
2023-05-06T12:21:10.238Z,1.1
2023-05-06T12:22:18.789Z,1.5
2023-05-06T12:23:27.120Z,1.5
2023-05-06T12:24:35.455Z,1.5
2023-05-06T12:25:43.985Z,1
2023-05-06T12:26:52.305Z,1
2023-05-06T12:28:00.663Z,1
2023-05-06T12:29:09.174Z,1
2023-05-06T12:30:17.559Z,1
2023-05-06T12:31:25.873Z,1
2023-05-06T12:32:34.427Z,0.9
2023-05-06T12:33:42.734Z,0.9
2023-05-06T12:34:51.145Z,0.9
2023-05-06T12:35:59.635Z,0.9
2023-05-06T12:37:07.953Z,0.9
2023-05-06T12:38:16.303Z,0.9
2023-05-06T12:39:24.832Z,1
2023-05-06T12:40:33.189Z,1
2023-05-06T12:41:41.613Z,1
2023-05-06T12:42:50.118Z,1.1
2023-05-06T12:43:58.505Z,1.1
2023-05-06T12:45:06.815Z,1.1
2023-05-06T12:46:15.396Z,0.9
2023-05-06T12:47:23.778Z,0.9
2023-05-06T12:48:32.072Z,0.9
2023-05-06T12:49:40.615Z,0.7
2023-05-06T12:50:49.072Z,0.7
2023-05-06T12:51:57.399Z,0.7
2023-05-06T12:53:05.952Z,0.7
2023-05-06T12:54:14.282Z,0.7
2023-05-06T12:55:22.620Z,0.7
2023-05-06T12:56:31.192Z,1
2023-05-06T12:57:39.535Z,1
2023-05-06T12:58:47.865Z,1
2023-05-06T12:59:56.627Z,0.9
2023-05-06T13:01:04.851Z,0.9
2023-05-06T13:02:13.254Z,0.9
2023-05-06T13:03:21.894Z,0.8
2023-05-06T13:04:30.738Z,0.8
2023-05-06T13:05:39.753Z,0.8
2023-05-06T13:06:48.291Z,0.9
2023-05-06T13:07:56.632Z,0.9
2023-05-06T13:09:04.958Z,0.9
2023-05-06T13:10:13.791Z,0.9
2023-05-06T13:11:21.866Z,0.9
2023-05-06T13:12:30.209Z,0.9
2023-05-06T13:13:38.747Z,0.8
2023-05-06T13:14:47.078Z,0.8
2023-05-06T13:15:55.531Z,0.8
2023-05-06T13:17:03.989Z,1.4
2023-05-06T13:18:12.295Z,1.4
2023-05-06T13:19:31.374Z,1.4
2023-05-06T13:20:29.191Z,1.1
2023-05-06T13:21:37.512Z,1.1
2023-05-06T13:22:54.137Z,1.1
2023-05-06T13:23:54.388Z,1.1
2023-05-06T13:25:02.721Z,1.1
2023-05-06T13:26:11.065Z,1.1
2023-05-06T13:27:19.588Z,1
2023-05-06T13:28:27.921Z,1
2023-05-06T13:29:36.258Z,1
2023-05-06T13:30:44.882Z,0.9
2023-05-06T13:31:53.254Z,0.9
2023-05-06T13:33:01.564Z,0.9
2023-05-06T13:34:10.114Z,0.9
2023-05-06T13:35:18.457Z,0.9
2023-05-06T13:36:26.810Z,0.9
2023-05-06T13:37:35.327Z,1.7
2023-05-06T13:38:43.661Z,1.7
2023-05-06T13:39:51.992Z,1.7
2023-05-06T13:41:00.544Z,1.1
2023-05-06T13:42:08.876Z,1.1
2023-05-06T13:43:17.211Z,1.1
2023-05-06T13:44:25.758Z,1
2023-05-06T13:45:34.105Z,1
2023-05-06T13:46:44.097Z,1
2023-05-06T13:47:51.096Z,1.1
2023-05-06T13:48:59.312Z,1.1
2023-05-06T13:50:07.642Z,1.1
2023-05-06T13:51:16.174Z,1
2023-05-06T13:52:24.516Z,1
2023-05-06T13:53:32.837Z,1
2023-05-06T13:54:41.366Z,1.2
2023-05-06T13:55:49.729Z,1.2
2023-05-06T13:56:58.047Z,1.2
2023-05-06T13:58:06.593Z,0.9
2023-05-06T13:59:14.937Z,0.9
2023-05-06T14:00:23.279Z,0.9
2023-05-06T14:01:31.978Z,0.8
2023-05-06T14:02:40.384Z,0.8
2023-05-06T14:03:48.670Z,0.8
2023-05-06T14:04:57.237Z,0.9
2023-05-06T14:06:05.543Z,0.9
2023-05-06T14:07:13.870Z,0.9
2023-05-06T14:08:22.396Z,1.1
2023-05-06T14:09:30.734Z,1.1
2023-05-06T14:10:39.093Z,1.1
2023-05-06T14:11:47.617Z,0.9
2023-05-06T14:12:55.972Z,0.9
2023-05-06T14:14:07.495Z,0.9
2023-05-06T14:15:16.034Z,0.9
2023-05-06T14:16:24.409Z,0.9
2023-05-06T14:17:32.813Z,0.9
2023-05-06T14:18:41.269Z,0.9
2023-05-06T14:19:49.762Z,0.9
2023-05-06T14:20:57.964Z,0.9
2023-05-06T14:22:06.563Z,0.8
2023-05-06T14:23:14.915Z,0.8
2023-05-06T14:24:23.251Z,0.8
2023-05-06T14:25:31.806Z,1.4
2023-05-06T14:26:40.150Z,1.4
2023-05-06T14:27:48.481Z,1.4
2023-05-06T14:28:57.032Z,0.9
2023-05-06T14:30:08.414Z,0.9
2023-05-06T14:31:13.727Z,0.9
2023-05-06T14:32:22.247Z,0.8
2023-05-06T14:33:30.612Z,0.8
2023-05-06T14:34:38.987Z,0.8
2023-05-06T14:35:48.439Z,0.9
2023-05-06T14:36:55.887Z,0.9
2023-05-06T14:38:04.243Z,0.9
2023-05-06T14:39:12.786Z,0.8
2023-05-06T14:40:21.138Z,0.8
2023-05-06T14:41:29.493Z,0.8
2023-05-06T14:42:38.058Z,0.7
2023-05-06T14:43:46.429Z,0.7
2023-05-06T14:44:54.741Z,0.7
2023-05-06T14:46:03.296Z,0.8
2023-05-06T14:47:11.627Z,0.8
2023-05-06T14:48:19.977Z,0.8
2023-05-06T14:49:28.528Z,0.8
2023-05-06T14:50:36.870Z,0.8
2023-05-06T14:51:45.221Z,0.8
2023-05-06T14:52:53.757Z,0.9
2023-05-06T14:54:02.103Z,0.9
2023-05-06T14:55:10.633Z,0.9
2023-05-06T14:56:19.025Z,2.1
2023-05-06T14:57:27.353Z,2.1
2023-05-06T14:58:35.753Z,2.1
2023-05-06T14:59:44.294Z,1
2023-05-06T15:00:52.674Z,1
2023-05-06T15:02:00.977Z,1
2023-05-06T15:03:09.596Z,0.8
2023-05-06T15:04:17.899Z,0.8
2023-05-06T15:05:26.249Z,0.8
2023-05-06T15:06:34.782Z,2
2023-05-06T15:07:43.236Z,2
2023-05-06T15:08:51.450Z,2
2023-05-06T15:10:00.066Z,2
2023-05-06T15:11:08.371Z,2
2023-05-06T15:44:56.674Z,0
2023-05-06T15:46:04.912Z,0
2023-05-06T15:47:14.215Z,0
2023-05-06T15:48:22.747Z,0.8
2023-05-06T15:49:47.182Z,0.8
2023-05-06T15:50:39.612Z,0.8
2023-05-06T15:51:47.970Z,1.3
2023-05-06T15:52:56.303Z,1.3
2023-05-06T15:54:04.643Z,1.3
2023-05-06T15:55:13.717Z,1.7
2023-05-06T15:56:21.564Z,1.7
2023-05-06T15:57:30.288Z,1.7
2023-05-06T15:58:38.436Z,1.1
2023-05-06T15:59:46.781Z,1.1
2023-05-06T16:00:55.229Z,1.1
2023-05-06T16:03:12.540Z,1
2023-05-06T16:04:20.451Z,1
2023-05-06T16:05:28.931Z,1.1
2023-05-06T16:06:37.271Z,1.1
2023-05-06T16:07:45.605Z,1.1
2023-05-06T16:08:54.151Z,1.1
2023-05-06T16:10:02.501Z,1.1
2023-05-06T16:11:10.831Z,1.1
2023-05-06T16:12:19.406Z,1.5
2023-05-06T16:13:27.809Z,1.5
2023-05-06T16:14:36.071Z,1.5
2023-05-06T16:15:44.624Z,0.9
2023-05-06T16:16:52.998Z,0.9
2023-05-06T16:18:01.308Z,0.9
2023-05-06T16:19:09.831Z,1